Time;durP1;ratioP1;P1;durP2;ratioP2;P2;SDS_P1;SDS_P2;PMS_P1;PMS_P2;Temp;Humidity;BMP_temperature;BMP_pressure;BME280_temperature;BME280_humidity;BME280_pressure;Samples;Min_cycle;Max_cycle;Signal;HPM_P1;HPM_P2
2021/01/19 00:02:18;;;;;;;4.27;3.97;;;3.70;99.90;;;;;;4954011;29;20533;-25
2021/01/19 00:04:44;;;;;;;4.67;4.27;;;3.80;99.90;;;;;;4953714;29;20434;-25
2021/01/19 00:07:11;;;;;;;4.63;4.07;;;3.80;99.90;;;;;;4952640;29;20549;-25
2021/01/19 00:09:38;;;;;;;4.60;4.20;;;3.80;99.90;;;;;;4950999;29;20442;-25
2021/01/19 00:12:06;;;;;;;4.17;3.90;;;3.90;99.90;;;;;;4951787;29;20482;-25
2021/01/19 00:14:32;;;;;;;5.07;4.50;;;3.90;99.90;;;;;;4953667;29;20533;-25
2021/01/19 00:16:59;;;;;;;5.53;4.40;;;3.90;99.90;;;;;;4952814;29;20461;-25
2021/01/19 00:19:26;;;;;;;4.53;4.13;;;3.90;99.90;;;;;;4952253;29;20505;-25
2021/01/19 00:21:53;;;;;;;4.70;4.30;;;3.90;99.90;;;;;;4949644;29;20466;-25
2021/01/19 00:24:19;;;;;;;4.47;4.17;;;3.90;99.90;;;;;;4951872;29;20450;-26
2021/01/19 00:26:47;;;;;;;4.30;4.00;;;4.00;99.90;;;;;;4952295;29;20454;-26
2021/01/19 00:29:15;;;;;;;4.60;4.23;;;4.00;99.90;;;;;;4953171;29;20442;-26
2021/01/19 00:31:42;;;;;;;4.30;3.90;;;4.00;99.90;;;;;;4952270;29;20442;-26
2021/01/19 00:34:08;;;;;;;5.00;4.50;;;4.10;99.90;;;;;;4935303;29;20434;-26
2021/01/19 00:36:35;;;;;;;3.87;3.57;;;4.00;99.90;;;;;;4952800;29;20489;-26
2021/01/19 00:39:03;;;;;;;6.27;5.43;;;3.90;99.90;;;;;;4953667;29;20533;-26
2021/01/19 00:41:30;;;;;;;4.77;4.37;;;3.90;99.90;;;;;;4954038;29;20979;-26
2021/01/19 00:43:57;;;;;;;7.43;4.87;;;3.90;99.90;;;;;;4953212;29;20438;-26
2021/01/19 00:46:24;;;;;;;5.93;4.77;;;4.00;99.90;;;;;;4952839;29;20873;-26
2021/01/19 00:48:51;;;;;;;4.93;4.60;;;4.00;99.90;;;;;;4953516;29;20437;-26
2021/01/19 00:51:19;;;;;;;6.07;5.27;;;4.00;99.90;;;;;;4952434;29;21047;-26
2021/01/19 00:53:45;;;;;;;6.23;4.10;;;4.00;99.90;;;;;;4953571;29;20438;-26
2021/01/19 00:56:12;;;;;;;4.73;4.33;;;4.00;99.90;;;;;;4953253;28;20486;-26
2021/01/19 00:58:39;;;;;;;4.53;4.10;;;4.00;99.90;;;;;;4936721;29;20460;-26
2021/01/19 01:01:06;;;;;;;5.00;3.70;;;4.00;99.90;;;;;;4935553;29;20493;-26
2021/01/19 01:03:34;;;;;;;4.93;4.17;;;4.00;99.90;;;;;;4952545;28;20543;-26
2021/01/19 01:06:01;;;;;;;7.80;4.27;;;4.00;99.90;;;;;;4951581;29;20478;-26
2021/01/19 01:08:28;;;;;;;5.40;3.77;;;4.00;99.90;;;;;;4953483;29;20761;-26
2021/01/19 01:10:54;;;;;;;4.90;4.00;;;4.00;99.90;;;;;;4952952;29;20450;-26
2021/01/19 01:13:21;;;;;;;4.87;4.47;;;4.00;99.90;;;;;;4951994;29;20453;-26
2021/01/19 01:15:48;;;;;;;3.97;3.70;;;4.00;99.90;;;;;;4951734;29;20466;-26
2021/01/19 01:18:16;;;;;;;4.60;4.20;;;4.00;99.90;;;;;;4951494;29;20468;-26
2021/01/19 01:20:43;;;;;;;4.00;3.70;;;4.00;99.90;;;;;;4951086;29;20477;-26
2021/01/19 01:23:13;;;;;;;4.43;4.07;;;4.00;99.90;;;;;;4951924;29;20443;-26
2021/01/19 01:25:40;;;;;;;6.13;4.77;;;4.00;99.90;;;;;;4952714;29;20545;-26
2021/01/19 01:28:08;;;;;;;4.70;4.30;;;4.00;99.90;;;;;;4951889;29;20496;-26
2021/01/19 01:30:34;;;;;;;5.63;4.87;;;3.90;99.90;;;;;;4952335;29;20457;-26
2021/01/19 01:33:01;;;;;;;6.10;5.07;;;3.90;99.90;;;;;;4952822;29;20500;-26
2021/01/19 01:35:29;;;;;;;4.47;4.07;;;3.90;99.90;;;;;;4951170;29;20446;-26
2021/01/19 01:37:56;;;;;;;4.93;4.53;;;3.80;99.90;;;;;;4951801;29;20864;-26
2021/01/19 01:40:24;;;;;;;5.20;4.70;;;3.80;99.90;;;;;;4949578;29;20442;-26
2021/01/19 01:42:51;;;;;;;4.57;4.17;;;3.80;99.90;;;;;;4950979;29;20442;-26
2021/01/19 01:45:19;;;;;;;4.57;3.57;;;3.70;99.90;;;;;;4951173;29;20453;-26
2021/01/19 01:47:47;;;;;;;5.20;4.80;;;3.60;99.90;;;;;;4952255;29;20541;-26
2021/01/19 01:50:14;;;;;;;5.53;5.10;;;3.50;99.90;;;;;;4951307;29;20453;-26
2021/01/19 01:52:43;;;;;;;4.43;4.03;;;3.50;99.90;;;;;;4951680;29;20533;-26
2021/01/19 01:55:10;;;;;;;7.33;4.40;;;3.50;99.90;;;;;;4951197;29;20450;-26
2021/01/19 01:57:38;;;;;;;4.20;3.90;;;3.50;99.90;;;;;;4950557;29;20473;-26
2021/01/19 02:00:07;;;;;;;4.57;4.03;;;3.50;99.90;;;;;;4951865;29;20446;-26
2021/01/19 02:02:34;;;;;;;4.17;3.87;;;3.50;99.90;;;;;;4950168;29;20467;-26
2021/01/19 02:05:03;;;;;;;4.00;3.60;;;3.50;99.90;;;;;;4950642;29;20869;-26
2021/01/19 02:07:38;;;;;;;6.90;4.23;;;3.50;99.90;;;;;;4950262;29;20453;-26
2021/01/19 02:10:15;;;;;;;5.90;5.27;;;3.40;99.90;;;;;;4951156;29;20444;-26
2021/01/19 02:12:51;;;;;;;4.60;4.17;;;3.30;99.90;;;;;;4947267;29;20442;-26
2021/01/19 02:15:27;;;;;;;6.20;3.93;;;3.20;99.90;;;;;;4950486;28;20528;-26
2021/01/19 02:18:03;;;;;;;4.20;3.80;;;3.10;99.90;;;;;;4951483;29;20446;-26
2021/01/19 02:20:54;;;;;;;9.77;4.80;;;3.10;99.90;;;;;;4932282;29;20441;-26
2021/01/19 02:23:33;;;;;;;5.80;3.70;;;3.10;99.90;;;;;;4949971;29;20450;-26
2021/01/19 02:26:37;;;;;;;3.83;3.63;;;3.10;99.90;;;;;;4951265;29;20960;-26
2021/01/19 02:29:22;;;;;;;5.30;4.70;;;3.20;99.90;;;;;;4950095;29;20508;-26
2021/01/19 02:32:09;;;;;;;5.13;4.73;;;3.20;99.90;;;;;;4949549;29;20517;-26
2021/01/19 02:34:44;;;;;;;4.00;3.80;;;3.20;99.90;;;;;;4950511;29;20541;-26
2021/01/19 02:37:14;;;;;;;3.97;3.70;;;3.10;99.90;;;;;;4951010;29;20449;-26
2021/01/19 02:39:48;;;;;;;3.80;3.60;;;3.00;99.90;;;;;;4950854;29;20751;-26
2021/01/19 02:42:21;;;;;;;5.00;4.50;;;2.80;99.90;;;;;;4950588;29;20608;-26
2021/01/19 02:44:51;;;;;;;4.77;4.37;;;2.80;99.90;;;;;;4951212;29;20442;-26
2021/01/19 02:47:19;;;;;;;6.67;4.30;;;2.70;99.90;;;;;;4949437;29;20545;-26
2021/01/19 02:49:46;;;;;;;4.03;3.73;;;2.60;99.90;;;;;;4949981;29;20449;-25
2021/01/19 02:52:15;;;;;;;5.00;4.40;;;2.50;99.90;;;;;;4950000;29;20503;-26
2021/01/19 02:54:43;;;;;;;4.23;3.93;;;2.40;99.90;;;;;;4949216;29;21126;-26
2021/01/19 02:57:28;;;;;;;6.77;4.33;;;2.40;99.90;;;;;;4948212;28;20496;-26
2021/01/19 03:00:06;;;;;;;4.03;3.63;;;2.30;99.90;;;;;;4950400;29;20529;-26
2021/01/19 03:02:36;;;;;;;3.90;3.67;;;2.30;99.90;;;;;;4950598;29;20470;-26
2021/01/19 03:05:05;;;;;;;4.87;4.37;;;2.30;99.90;;;;;;4950826;29;20482;-26
2021/01/19 03:07:38;;;;;;;4.30;4.00;;;2.20;99.90;;;;;;4950592;29;20465;-26
2021/01/19 03:10:06;;;;;;;4.70;4.30;;;2.10;99.90;;;;;;4951484;29;20474;-26
2021/01/19 03:12:35;;;;;;;4.70;4.30;;;2.00;99.90;;;;;;4950480;29;20533;-26
2021/01/19 03:15:03;;;;;;;4.23;3.90;;;2.00;99.90;;;;;;4950570;29;20941;-26
2021/01/19 03:17:31;;;;;;;5.03;4.10;;;1.90;99.90;;;;;;4951004;29;20454;-26
2021/01/19 03:19:59;;;;;;;4.53;4.13;;;2.00;99.90;;;;;;4949672;29;21004;-26
2021/01/19 03:22:25;;;;;;;4.40;3.73;;;2.00;99.90;;;;;;4949418;29;20683;-26
2021/01/19 03:24:52;;;;;;;5.13;4.07;;;2.10;99.90;;;;;;4948832;29;20557;-26
2021/01/19 03:27:19;;;;;;;4.90;4.40;;;2.20;99.90;;;;;;4950942;28;20512;-26
2021/01/19 03:29:46;;;;;;;4.97;4.57;;;2.30;99.90;;;;;;4953922;29;20453;-26
2021/01/19 03:32:13;;;;;;;5.20;4.70;;;2.40;99.90;;;;;;4954131;29;20477;-26
2021/01/19 03:34:41;;;;;;;4.60;4.17;;;2.40;99.90;;;;;;4958267;29;20469;-26
2021/01/19 03:37:10;;;;;;;5.23;4.73;;;2.50;99.90;;;;;;4957498;29;20445;-26
2021/01/19 03:39:36;;;;;;;4.47;4.17;;;2.50;99.90;;;;;;4953102;29;20442;-26
2021/01/19 03:42:04;;;;;;;4.27;3.97;;;2.50;99.90;;;;;;4953758;29;20519;-26
2021/01/19 03:44:31;;;;;;;5.87;4.40;;;2.60;99.90;;;;;;4951405;29;20453;-26
2021/01/19 03:46:57;;;;;;;4.87;4.23;;;2.60;99.90;;;;;;4952598;29;20764;-26
2021/01/19 03:49:24;;;;;;;4.33;3.93;;;2.60;99.90;;;;;;4953869;29;20620;-26
2021/01/19 03:51:51;;;;;;;6.97;4.10;;;2.50;99.90;;;;;;4953330;29;20533;-26
2021/01/19 03:54:19;;;;;;;3.70;3.43;;;2.50;99.90;;;;;;4952583;29;20438;-26
2021/01/19 03:56:46;;;;;;;4.80;4.40;;;2.50;99.90;;;;;;4952324;29;20473;-26
2021/01/19 03:59:13;;;;;;;5.07;4.60;;;2.40;99.90;;;;;;4953410;29;20453;-26
2021/01/19 04:01:41;;;;;;;4.80;4.30;;;2.30;99.90;;;;;;4952817;29;20462;-26
2021/01/19 04:04:09;;;;;;;4.27;3.97;;;2.30;99.90;;;;;;4952368;29;20446;-26
2021/01/19 04:06:35;;;;;;;4.20;3.87;;;2.20;99.90;;;;;;4934971;29;20791;-26
2021/01/19 04:09:03;;;;;;;3.80;3.60;;;2.30;99.90;;;;;;4951919;29;20446;-26
2021/01/19 04:11:30;;;;;;;5.70;4.53;;;2.30;99.90;;;;;;4952180;28;20462;-25
2021/01/19 04:13:57;;;;;;;4.17;3.83;;;2.30;99.90;;;;;;4952105;29;20446;-26
2021/01/19 04:16:24;;;;;;;4.23;3.93;;;2.30;99.90;;;;;;4950605;29;20442;-26
2021/01/19 04:18:51;;;;;;;5.60;4.20;;;2.30;99.90;;;;;;4951713;29;20442;-25
2021/01/19 04:21:17;;;;;;;4.70;4.40;;;2.30;99.90;;;;;;4951476;29;20478;-26
2021/01/19 04:23:44;;;;;;;6.90;4.70;;;2.30;99.90;;;;;;4952589;29;20777;-26
2021/01/19 04:26:11;;;;;;;4.07;3.87;;;2.20;99.90;;;;;;4952305;29;20462;-26
2021/01/19 04:28:39;;;;;;;4.53;4.10;;;2.20;99.90;;;;;;4952537;29;20437;-26
2021/01/19 04:31:07;;;;;;;4.43;4.00;;;2.20;99.90;;;;;;4951789;29;20449;-26
2021/01/19 04:33:33;;;;;;;4.17;3.87;;;2.20;99.90;;;;;;4951086;29;20544;-25
2021/01/19 04:36:00;;;;;;;3.73;3.40;;;2.20;99.90;;;;;;4951911;29;20453;-26
2021/01/19 04:38:27;;;;;;;4.00;3.70;;;2.10;99.90;;;;;;4951972;28;20450;-26
2021/01/19 04:40:54;;;;;;;4.10;3.80;;;2.10;99.90;;;;;;4951449;29;20489;-25
2021/01/19 04:43:22;;;;;;;4.33;4.03;;;2.10;99.90;;;;;;4951267;29;20681;-26
2021/01/19 04:45:51;;;;;;;4.40;4.03;;;2.00;99.90;;;;;;4952569;29;20474;-25
2021/01/19 04:48:20;;;;;;;4.40;4.20;;;2.00;99.90;;;;;;4952476;29;20482;-25
2021/01/19 04:50:47;;;;;;;5.27;4.87;;;1.90;99.90;;;;;;4952236;29;20456;-25
2021/01/19 04:53:18;;;;;;;4.47;4.07;;;1.80;99.90;;;;;;4950509;29;20453;-26
2021/01/19 04:55:52;;;;;;;3.60;3.40;;;1.80;99.90;;;;;;4952481;29;20493;-25
2021/01/19 04:58:22;;;;;;;4.50;4.20;;;1.70;99.90;;;;;;4949976;29;20456;-25
2021/01/19 05:01:07;;;;;;;3.50;3.30;;;1.70;99.90;;;;;;4951558;29;21103;-25
2021/01/19 05:03:41;;;;;;;6.17;3.87;;;1.60;99.90;;;;;;4951959;29;20591;-25
2021/01/19 05:06:47;;;;;;;4.53;4.13;;;1.70;99.90;;;;;;4951765;29;20489;-25
2021/01/19 05:09:21;;;;;;;4.50;4.20;;;1.70;99.90;;;;;;4951395;29;20471;-26
2021/01/19 05:11:52;;;;;;;3.87;3.60;;;1.70;99.90;;;;;;4949147;29;20894;-26
2021/01/19 05:14:20;;;;;;;5.13;4.70;;;1.70;99.90;;;;;;4956402;29;20445;-26
2021/01/19 05:16:49;;;;;;;4.77;4.40;;;1.80;99.90;;;;;;4956690;29;20446;-26
2021/01/19 05:19:21;;;;;;;4.67;4.03;;;1.90;99.90;;;;;;4955036;29;20454;-26
2021/01/19 05:21:52;;;;;;;3.80;3.50;;;1.90;99.90;;;;;;4955619;29;20466;-26
2021/01/19 05:24:19;;;;;;;4.80;4.40;;;2.00;99.90;;;;;;4952614;29;20439;-26
2021/01/19 05:26:46;;;;;;;6.27;4.73;;;2.10;99.90;;;;;;4950555;29;21101;-26
2021/01/19 05:29:20;;;;;;;5.20;4.80;;;2.10;99.90;;;;;;4946544;29;20434;-26
2021/01/19 05:31:52;;;;;;;10.70;5.23;;;2.20;99.90;;;;;;4948526;29;20456;-26
2021/01/19 05:34:21;;;;;;;5.00;4.60;;;2.10;99.90;;;;;;4948662;29;20461;-26
2021/01/19 05:36:50;;;;;;;5.57;5.10;;;2.20;99.90;;;;;;4948237;29;20461;-26
2021/01/19 05:39:18;;;;;;;4.77;4.17;;;2.10;99.90;;;;;;4947942;29;20470;-26
2021/01/19 05:41:47;;;;;;;7.20;5.60;;;2.20;99.90;;;;;;4944203;28;20466;-26
2021/01/19 05:44:17;;;;;;;6.13;5.13;;;2.20;99.90;;;;;;4943789;29;20442;-26
2021/01/19 05:46:48;;;;;;;7.80;7.10;;;2.20;99.90;;;;;;4945401;29;20464;-26
2021/01/19 05:49:18;;;;;;;14.17;11.27;;;2.20;99.90;;;;;;4944889;29;20450;-25
2021/01/19 05:51:46;;;;;;;7.60;6.90;;;2.30;99.90;;;;;;4942989;28;20952;-26
2021/01/19 05:54:26;;;;;;;6.27;5.67;;;2.30;99.90;;;;;;4944490;29;20443;-25
2021/01/19 05:57:03;;;;;;;8.80;6.07;;;2.40;99.90;;;;;;4941916;28;20523;-25
2021/01/19 05:59:32;;;;;;;6.60;6.03;;;2.30;99.90;;;;;;4942159;29;20438;-26
2021/01/19 06:02:01;;;;;;;7.43;6.70;;;2.40;99.90;;;;;;4941743;29;20477;-26
2021/01/19 06:04:47;;;;;;;8.90;6.37;;;2.40;99.90;;;;;;4940018;29;20541;-26
2021/01/19 06:07:15;;;;;;;8.37;7.03;;;2.40;99.90;;;;;;4937706;29;20460;-25
2021/01/19 06:09:44;;;;;;;6.00;5.60;;;2.40;99.90;;;;;;4941695;29;20449;-26
2021/01/19 06:12:12;;;;;;;12.77;5.90;;;2.40;99.90;;;;;;4942407;29;20466;-25
2021/01/19 06:14:39;;;;;;;6.40;5.63;;;2.40;99.90;;;;;;4941168;29;20435;-25
2021/01/19 06:17:11;;;;;;;7.30;6.70;;;2.30;99.90;;;;;;4923043;29;20450;-25
2021/01/19 06:19:41;;;;;;;6.90;6.07;;;2.30;99.90;;;;;;4938379;29;20579;-25
2021/01/19 06:22:10;;;;;;;8.00;6.43;;;2.30;99.90;;;;;;4937915;29;20473;-26
2021/01/19 06:24:39;;;;;;;5.50;5.10;;;2.30;99.90;;;;;;4937706;29;20513;-25
2021/01/19 06:27:07;;;;;;;6.80;6.10;;;2.30;99.90;;;;;;4935890;28;20675;-26
2021/01/19 06:29:35;;;;;;;8.30;6.10;;;2.30;99.90;;;;;;4936919;29;20457;-26
2021/01/19 06:32:03;;;;;;;6.27;5.70;;;2.20;99.90;;;;;;4935902;29;21029;-26
2021/01/19 06:34:32;;;;;;;5.17;4.63;;;2.20;99.90;;;;;;4936017;29;21429;-25
2021/01/19 06:37:00;;;;;;;4.50;4.20;;;2.10;99.90;;;;;;4937316;29;20594;-25
2021/01/19 06:39:34;;;;;;;7.20;6.60;;;2.00;99.90;;;;;;4932449;29;20507;-25
2021/01/19 06:42:10;;;;;;;6.90;6.40;;;2.00;99.90;;;;;;4933674;28;20490;-26
2021/01/19 06:44:46;;;;;;;6.40;5.90;;;2.00;99.90;;;;;;4931754;29;21167;-25
2021/01/19 06:47:15;;;;;;;7.00;6.30;;;2.10;99.90;;;;;;4930038;29;20679;-26
2021/01/19 06:49:42;;;;;;;5.50;5.10;;;2.10;99.90;;;;;;4930130;29;20441;-25
2021/01/19 06:52:13;;;;;;;6.07;5.60;;;2.10;99.90;;;;;;4931909;29;20533;-26
2021/01/19 06:55:04;;;;;;;5.70;5.20;;;2.10;99.90;;;;;;4928810;29;20454;-26
2021/01/19 06:57:34;;;;;;;6.00;5.30;;;2.10;99.90;;;;;;4909219;29;20585;-25
2021/01/19 07:00:09;;;;;;;6.40;5.67;;;2.10;99.90;;;;;;4915382;29;20557;-26
2021/01/19 07:02:38;;;;;;;4.80;4.40;;;2.20;99.90;;;;;;4911855;29;20484;-26
2021/01/19 07:05:12;;;;;;;5.00;4.60;;;2.20;99.90;;;;;;4913002;29;21191;-26
2021/01/19 07:07:43;;;;;;;6.13;5.53;;;2.20;99.90;;;;;;4911333;29;20455;-26
2021/01/19 07:10:13;;;;;;;5.90;5.40;;;2.10;99.90;;;;;;4910244;29;20451;-26
2021/01/19 07:12:56;;;;;;;8.90;5.33;;;2.10;99.90;;;;;;4906128;29;20510;-26
2021/01/19 07:15:52;;;;;;;5.53;5.13;;;2.10;99.90;;;;;;4908018;29;21127;-26
2021/01/19 07:18:32;;;;;;;4.83;4.50;;;2.10;99.90;;;;;;4906319;29;20454;-26
2021/01/19 07:21:03;;;;;;;5.33;4.87;;;2.10;99.90;;;;;;4908641;29;21028;-26
2021/01/19 07:24:10;;;;;;;5.70;5.20;;;2.10;99.90;;;;;;4909886;29;21148;-25
2021/01/19 07:26:41;;;;;;;6.07;5.60;;;2.00;99.90;;;;;;4898585;29;20794;-25
2021/01/19 07:29:08;;;;;;;4.90;4.50;;;2.00;99.90;;;;;;4909859;29;20505;-26
2021/01/19 07:31:35;;;;;;;4.90;4.53;;;2.00;99.90;;;;;;4907148;29;20458;-25
2021/01/19 07:34:05;;;;;;;5.73;5.07;;;1.90;99.90;;;;;;4905756;29;20443;-26
2021/01/19 07:36:32;;;;;;;5.30;4.83;;;1.90;99.90;;;;;;4904577;29;20451;-26
2021/01/19 07:39:10;;;;;;;5.53;5.07;;;1.90;99.90;;;;;;4907522;29;20473;-26
2021/01/19 07:41:38;;;;;;;8.40;5.10;;;2.00;99.90;;;;;;4908373;29;20491;-26
2021/01/19 07:44:05;;;;;;;6.43;5.90;;;2.00;99.90;;;;;;4904135;29;20449;-26
2021/01/19 07:46:35;;;;;;;6.63;6.13;;;2.00;99.90;;;;;;4922448;29;20454;-25
2021/01/19 07:49:05;;;;;;;5.37;4.83;;;2.00;99.90;;;;;;4931373;29;20448;-25
2021/01/19 07:51:43;;;;;;;6.23;5.10;;;2.00;99.90;;;;;;4945466;28;20448;-25
2021/01/19 07:54:12;;;;;;;5.30;4.80;;;2.10;99.90;;;;;;4943015;28;21164;-25
2021/01/19 07:56:40;;;;;;;7.40;5.40;;;2.10;99.90;;;;;;4946051;28;20503;-25
2021/01/19 07:59:19;;;;;;;5.47;4.97;;;2.20;99.90;;;;;;4950081;28;20480;-25
2021/01/19 08:01:54;;;;;;;4.97;4.50;;;2.20;99.90;;;;;;4928788;29;20588;-26
2021/01/19 08:04:29;;;;;;;5.43;4.93;;;2.40;99.90;;;;;;4941070;28;20460;-25
2021/01/19 08:06:57;;;;;;;6.30;5.17;;;2.50;99.90;;;;;;4943627;28;20859;-25
2021/01/19 08:09:35;;;;;;;5.77;5.27;;;2.70;99.90;;;;;;4944950;28;20488;-25
2021/01/19 08:12:06;;;;;;;5.00;4.40;;;2.70;99.90;;;;;;4948772;28;20811;-25
2021/01/19 08:14:42;;;;;;;5.47;4.97;;;2.80;99.90;;;;;;4941874;28;20456;-26
2021/01/19 08:17:11;;;;;;;11.80;5.90;;;2.80;99.90;;;;;;4941229;28;20544;-26
2021/01/19 08:19:40;;;;;;;7.33;6.73;;;3.00;99.90;;;;;;4943083;28;20909;-26
2021/01/19 08:22:08;;;;;;;8.93;5.60;;;3.10;99.90;;;;;;4944967;28;20493;-26
2021/01/19 08:24:35;;;;;;;7.67;6.37;;;3.20;99.90;;;;;;4940536;28;20465;-26
2021/01/19 08:29:31;;;;;;;12.63;9.83;;;3.30;99.90;;;;;;4858288;29;20934;-25
2021/01/19 08:32:00;;;;;;;16.40;11.80;;;3.30;99.90;;;;;;4865323;29;21318;-26
2021/01/19 08:34:32;;;;;;;9.83;8.50;;;3.40;99.90;;;;;;4864235;29;20460;-25
2021/01/19 08:37:01;;;;;;;8.27;7.47;;;3.40;99.90;;;;;;4866238;29;20924;-26
2021/01/19 08:39:29;;;;;;;7.03;6.37;;;3.40;99.90;;;;;;4868760;29;20562;-25
2021/01/19 08:41:56;;;;;;;5.93;5.30;;;3.50;99.90;;;;;;4884300;29;20542;-25
2021/01/19 08:44:25;;;;;;;8.33;6.07;;;3.50;99.90;;;;;;4873218;29;20495;-25
2021/01/19 08:46:56;;;;;;;10.63;7.57;;;3.50;99.90;;;;;;4866780;29;20464;-26
2021/01/19 08:49:24;;;;;;;17.23;14.27;;;3.50;99.90;;;;;;4866350;29;20903;-25
2021/01/19 08:51:52;;;;;;;8.43;7.63;;;3.50;99.90;;;;;;4864764;29;20540;-26
2021/01/19 08:54:20;;;;;;;10.47;9.40;;;3.60;99.90;;;;;;4872316;29;20823;-25
2021/01/19 08:56:48;;;;;;;7.57;5.83;;;3.80;99.90;;;;;;4866893;29;20452;-26
2021/01/19 08:59:17;;;;;;;5.50;5.10;;;3.90;99.90;;;;;;4867369;29;20507;-25
2021/01/19 09:01:52;;;;;;;5.63;5.17;;;4.10;99.90;;;;;;4869057;29;20489;-26
2021/01/19 09:04:24;;;;;;;7.83;5.77;;;4.40;99.90;;;;;;4867159;29;20455;-26
2021/01/19 09:06:53;;;;;;;10.40;6.47;;;4.80;99.90;;;;;;4867383;29;20445;-26
2021/01/19 09:09:21;;;;;;;7.10;6.30;;;5.00;99.90;;;;;;4865945;29;20445;-26
2021/01/19 09:11:51;;;;;;;7.00;6.23;;;5.20;99.90;;;;;;4868995;29;20448;-26
2021/01/19 09:14:24;;;;;;;7.10;6.50;;;5.30;99.90;;;;;;4861308;29;20636;-26
2021/01/19 09:16:52;;;;;;;7.60;7.00;;;5.30;99.90;;;;;;4869857;29;20528;-26
2021/01/19 09:19:21;;;;;;;8.50;7.70;;;5.30;99.90;;;;;;4864987;29;20540;-26
2021/01/19 09:21:49;;;;;;;11.70;10.13;;;5.30;99.90;;;;;;4865079;29;21307;-26
2021/01/19 09:24:22;;;;;;;9.30;8.00;;;5.40;99.90;;;;;;4864491;29;20457;-26
2021/01/19 09:27:00;;;;;;;12.73;10.97;;;5.40;99.90;;;;;;4866448;29;20777;-26
2021/01/19 09:29:28;;;;;;;13.77;12.30;;;5.40;99.90;;;;;;4880234;29;20487;-26
2021/01/19 09:31:59;;;;;;;9.90;8.90;;;5.40;99.90;;;;;;4886045;29;20448;-26
2021/01/19 09:34:27;;;;;;;14.13;9.00;;;5.50;99.90;;;;;;4899206;29;20560;-27
2021/01/19 09:37:11;;;;;;;7.77;7.07;;;5.60;99.90;;;;;;4895963;29;20457;-26
2021/01/19 09:39:41;;;;;;;7.77;6.90;;;5.70;99.90;;;;;;4885374;29;20448;-26
2021/01/19 09:42:10;;;;;;;7.90;7.20;;;5.70;99.90;;;;;;4891852;29;20514;-26
2021/01/19 09:44:38;;;;;;;11.53;10.60;;;5.70;99.90;;;;;;4885469;29;20460;-26
2021/01/19 09:47:10;;;;;;;10.60;7.60;;;5.70;99.90;;;;;;4886387;29;20566;-26
2021/01/19 09:49:39;;;;;;;9.67;8.97;;;5.70;99.90;;;;;;4889469;29;20468;-26
2021/01/19 09:52:11;;;;;;;9.37;8.43;;;5.70;99.90;;;;;;4880814;29;20538;-26
2021/01/19 09:54:39;;;;;;;7.90;7.20;;;5.80;99.90;;;;;;4905327;29;20459;-26
2021/01/19 09:57:08;;;;;;;7.00;6.40;;;5.90;99.90;;;;;;4904152;29;21189;-26
2021/01/19 09:59:36;;;;;;;8.70;6.40;;;6.10;99.90;;;;;;4892681;29;20550;-27
2021/01/19 10:02:04;;;;;;;6.93;6.33;;;6.10;99.90;;;;;;4885684;29;20483;-26
2021/01/19 10:04:32;;;;;;;6.83;6.23;;;6.10;99.90;;;;;;4911366;29;20442;-26
2021/01/19 10:07:06;;;;;;;9.20;8.30;;;6.20;99.90;;;;;;4906733;29;20730;-26
2021/01/19 10:09:35;;;;;;;8.10;7.50;;;6.20;99.90;;;;;;4902876;29;20560;-26
2021/01/19 10:12:05;;;;;;;8.97;6.90;;;6.20;99.90;;;;;;4904770;29;20511;-26
2021/01/19 10:14:37;;;;;;;9.90;9.00;;;6.10;99.90;;;;;;4906760;29;20465;-26
2021/01/19 10:17:10;;;;;;;9.73;8.93;;;6.10;99.90;;;;;;4905741;29;20459;-25
2021/01/19 10:19:40;;;;;;;7.10;6.50;;;6.10;99.90;;;;;;4922887;29;20465;-26
2021/01/19 10:22:10;;;;;;;15.63;10.33;;;6.30;99.90;;;;;;4924818;29;20489;-25
2021/01/19 10:24:48;;;;;;;8.70;8.00;;;6.30;99.90;;;;;;4924312;29;20446;-25
2021/01/19 10:27:19;;;;;;;7.57;6.90;;;6.50;99.90;;;;;;4905707;29;20520;-25
2021/01/19 10:29:46;;;;;;;7.73;7.00;;;6.50;99.90;;;;;;4921964;29;20465;-26
2021/01/19 10:32:16;;;;;;;7.70;7.00;;;6.60;99.90;;;;;;4919336;29;20446;-25
2021/01/19 10:34:51;;;;;;;8.10;7.30;;;6.60;99.90;;;;;;4925492;29;20876;-25
2021/01/19 10:37:20;;;;;;;8.83;8.00;;;6.60;99.90;;;;;;4925551;29;20450;-25
2021/01/19 10:39:48;;;;;;;8.80;8.00;;;6.60;99.90;;;;;;4904333;29;20783;-25
2021/01/19 10:42:25;;;;;;;8.23;7.47;;;6.50;99.90;;;;;;4919573;28;21393;-25
2021/01/19 10:44:58;;;;;;;15.10;7.87;;;6.50;99.90;;;;;;4922594;29;20445;-25
2021/01/19 10:47:28;;;;;;;8.20;7.43;;;6.40;99.90;;;;;;4923071;29;20458;-25
2021/01/19 10:49:57;;;;;;;8.77;7.80;;;6.20;99.80;;;;;;4922813;29;20453;-25
2021/01/19 10:52:25;;;;;;;8.97;8.10;;;6.10;99.90;;;;;;4921021;29;20508;-25
2021/01/19 10:54:55;;;;;;;9.80;8.20;;;6.10;99.90;;;;;;4922799;29;21080;-25
2021/01/19 10:57:29;;;;;;;8.43;7.63;;;6.10;99.90;;;;;;4922488;29;20465;-25
2021/01/19 11:00:02;;;;;;;11.17;9.97;;;6.20;99.90;;;;;;4901292;29;20869;-25
2021/01/19 11:02:31;;;;;;;8.90;8.07;;;6.30;99.90;;;;;;4900725;29;20481;-25
2021/01/19 11:05:01;;;;;;;8.83;8.13;;;6.50;99.90;;;;;;4914282;28;20491;-25
2021/01/19 11:07:28;;;;;;;9.87;8.87;;;6.60;99.90;;;;;;4915811;29;21016;-25
2021/01/19 11:09:55;;;;;;;9.30;8.27;;;6.50;99.80;;;;;;4922854;29;21373;-25
2021/01/19 11:12:22;;;;;;;9.90;8.90;;;6.50;99.90;;;;;;4919132;29;20445;-25
2021/01/19 11:14:50;;;;;;;9.03;8.10;;;6.50;99.90;;;;;;4919002;29;20561;-26
2021/01/19 11:17:18;;;;;;;9.70;8.67;;;6.50;99.90;;;;;;4916956;29;20452;-25
2021/01/19 11:19:45;;;;;;;10.03;9.10;;;6.60;99.90;;;;;;4919005;29;20457;-25
2021/01/19 11:22:12;;;;;;;8.53;7.73;;;6.60;99.90;;;;;;4921921;29;20474;-25
2021/01/19 11:24:40;;;;;;;11.63;9.30;;;6.70;99.90;;;;;;4922055;29;20549;-26
2021/01/19 11:27:08;;;;;;;9.87;8.97;;;6.70;99.90;;;;;;4925224;29;20446;-26
2021/01/19 11:29:35;;;;;;;13.40;11.17;;;6.80;99.90;;;;;;4918552;29;20458;-25
2021/01/19 11:34:31;;;;;;;9.40;8.60;;;6.90;99.90;;;;;;4919252;29;20558;-25
2021/01/19 11:36:58;;;;;;;10.10;9.10;;;6.80;99.90;;;;;;4918671;29;20452;-26
2021/01/19 11:39:26;;;;;;;11.93;10.30;;;6.80;99.90;;;;;;4922607;29;20456;-25
2021/01/19 11:41:54;;;;;;;9.77;8.77;;;6.80;99.90;;;;;;4917125;29;20469;-25
2021/01/19 11:44:22;;;;;;;12.10;10.10;;;6.70;99.90;;;;;;4873557;29;20442;-26
2021/01/19 11:46:50;;;;;;;9.70;8.70;;;6.60;99.90;;;;;;4878621;29;20464;-26
2021/01/19 11:49:17;;;;;;;11.13;10.13;;;6.50;99.90;;;;;;4892830;28;20476;-25
2021/01/19 11:51:47;;;;;;;11.10;10.10;;;6.30;99.90;;;;;;4880675;29;20442;-25
2021/01/19 11:54:16;;;;;;;11.07;10.17;;;6.30;99.90;;;;;;4918487;28;20450;-26
2021/01/19 11:56:48;;;;;;;12.90;9.90;;;6.20;99.90;;;;;;4923352;29;20450;-25
2021/01/19 11:59:17;;;;;;;10.93;9.93;;;6.10;99.90;;;;;;4872265;29;20685;-26
2021/01/19 12:01:51;;;;;;;10.43;9.53;;;6.00;99.90;;;;;;4882652;29;20880;-25
2021/01/19 12:04:19;;;;;;;9.67;8.60;;;5.90;99.90;;;;;;4883178;29;20487;-25
2021/01/19 12:06:52;;;;;;;9.23;8.53;;;5.80;99.90;;;;;;4885520;29;20440;-25
2021/01/19 12:09:22;;;;;;;11.13;10.03;;;5.70;99.90;;;;;;4881528;29;20519;-25
2021/01/19 12:11:53;;;;;;;16.23;9.27;;;5.80;99.90;;;;;;4884863;29;20735;-25
2021/01/19 12:14:20;;;;;;;9.67;8.67;;;5.80;99.90;;;;;;4885725;29;20468;-25
2021/01/19 12:16:51;;;;;;;10.77;9.67;;;5.90;99.90;;;;;;4886641;29;20755;-25
2021/01/19 12:19:19;;;;;;;11.27;9.83;;;5.90;99.90;;;;;;4887109;29;20448;-25
2021/01/19 12:21:48;;;;;;;9.80;8.83;;;5.90;99.90;;;;;;4889126;29;20479;-26
2021/01/19 12:24:16;;;;;;;10.30;9.07;;;6.00;99.90;;;;;;4889997;29;20445;-26
2021/01/19 12:26:45;;;;;;;10.53;9.43;;;5.90;99.90;;;;;;4886654;29;20630;-25
2021/01/19 12:29:14;;;;;;;10.67;9.10;;;5.90;99.90;;;;;;4886090;29;20479;-26
2021/01/19 12:31:42;;;;;;;10.83;9.77;;;5.90;99.90;;;;;;4883086;29;21011;-24
2021/01/19 12:34:09;;;;;;;14.27;11.43;;;5.70;99.90;;;;;;4878364;29;20440;-24
2021/01/19 12:36:37;;;;;;;11.30;10.27;;;5.50;99.90;;;;;;4884697;29;20496;-24
2021/01/19 12:39:09;;;;;;;13.87;12.40;;;5.30;99.90;;;;;;4885075;29;20488;-24
2021/01/19 12:41:37;;;;;;;10.80;9.73;;;5.20;99.90;;;;;;4866018;29;20651;-26
2021/01/19 12:44:07;;;;;;;12.20;9.87;;;5.00;99.90;;;;;;4882359;29;20458;-24
2021/01/19 12:46:37;;;;;;;17.30;12.97;;;4.90;99.90;;;;;;4899814;29;20482;-26
2021/01/19 12:49:05;;;;;;;13.67;11.60;;;4.90;99.90;;;;;;4907001;29;21286;-26
2021/01/19 12:51:33;;;;;;;14.03;11.00;;;4.90;99.90;;;;;;4904280;29;20442;-26
2021/01/19 12:54:00;;;;;;;12.40;11.20;;;4.80;99.90;;;;;;4902622;29;20451;-26
2021/01/19 12:56:28;;;;;;;13.30;11.87;;;4.80;99.90;;;;;;4905394;29;20542;-26
2021/01/19 12:58:56;;;;;;;16.13;12.60;;;4.90;99.90;;;;;;4904361;29;20455;-26
2021/01/19 13:01:26;;;;;;;16.10;14.40;;;5.00;99.90;;;;;;4913091;28;20565;-26
2021/01/19 13:03:55;;;;;;;13.40;12.00;;;4.90;99.90;;;;;;4900697;29;20447;-26
2021/01/19 13:06:22;;;;;;;13.97;12.50;;;4.80;99.90;;;;;;4908152;29;20453;-26
2021/01/19 13:08:49;;;;;;;13.77;12.27;;;4.80;99.90;;;;;;4906938;29;20447;-26
2021/01/19 13:11:17;;;;;;;16.40;11.33;;;4.80;99.90;;;;;;4903154;29;20462;-26
2021/01/19 13:13:44;;;;;;;16.17;12.50;;;4.90;99.90;;;;;;4902801;29;20443;-26
2021/01/19 13:16:11;;;;;;;14.80;12.90;;;5.00;99.90;;;;;;4907786;29;20471;-26